createdAt,value
2018-11-21T00:01:45.022Z,94.00
2018-11-21T00:03:49.046Z,93.80
2018-11-21T00:05:53.066Z,93.80
2018-11-21T00:07:57.077Z,94.00
2018-11-21T00:10:01.133Z,93.90
2018-11-21T00:12:05.276Z,93.80
2018-11-21T00:14:09.329Z,93.70
2018-11-21T00:16:13.369Z,93.80
2018-11-21T00:18:17.379Z,93.70
2018-11-21T00:20:21.362Z,93.70
2018-11-21T00:22:25.620Z,94.00
2018-11-21T00:24:29.631Z,94.10
2018-11-21T00:26:33.679Z,94.00
2018-11-21T00:28:37.700Z,94.20
2018-11-21T00:30:41.709Z,94.10
2018-11-21T00:32:45.689Z,94.00
2018-11-21T00:34:50.995Z,94.00
2018-11-21T00:36:54.955Z,94.20
2018-11-21T00:38:58.930Z,94.10
2018-11-21T00:41:03.071Z,94.10
2018-11-21T00:43:07.071Z,94.10
2018-11-21T00:45:11.335Z,94.30
2018-11-21T00:47:15.990Z,94.20
2018-11-21T00:49:19.998Z,94.50
2018-11-21T00:51:24.022Z,94.60
2018-11-21T00:54:10.584Z,94.50
2018-11-21T00:56:13.013Z,94.50
2018-11-21T00:58:15.483Z,94.30
2018-11-21T01:00:18.326Z,94.50
2018-11-21T01:02:20.780Z,94.80
2018-11-21T01:04:23.238Z,94.70
2018-11-21T01:06:26.022Z,94.60
2018-11-21T01:08:28.469Z,94.60
2018-11-21T01:10:30.955Z,94.40
2018-11-21T01:12:33.458Z,94.50
2018-11-21T01:14:35.921Z,94.60
2018-11-21T01:16:38.383Z,94.70
2018-11-21T01:18:40.862Z,94.80
2018-11-21T01:20:43.375Z,94.80
2018-11-21T01:22:45.860Z,94.70
2018-11-21T01:24:48.503Z,94.40
2018-11-21T01:26:50.969Z,94.70
2018-11-21T01:28:53.445Z,94.60
2018-11-21T01:30:55.921Z,94.60
2018-11-21T01:32:58.401Z,94.80
2018-11-21T01:35:00.942Z,94.80
2018-11-21T01:37:03.486Z,94.80
2018-11-21T01:39:08.642Z,94.70
2018-11-21T01:41:11.681Z,94.70
2018-11-21T01:43:14.138Z,95.00
2018-11-21T01:45:16.613Z,95.00
2018-11-21T01:47:19.124Z,94.90
2018-11-21T01:49:21.569Z,94.80
2018-11-21T01:51:24.081Z,95.00
2018-11-21T01:53:26.876Z,94.90
2018-11-21T01:55:29.343Z,94.80
2018-11-21T01:57:31.794Z,94.80
2018-11-21T01:59:34.322Z,94.90
2018-11-21T02:01:36.836Z,94.90
2018-11-21T02:03:39.470Z,95.10
2018-11-21T02:05:41.925Z,94.80
2018-11-21T02:07:44.366Z,94.70
2018-11-21T02:09:46.869Z,94.70
2018-11-21T02:11:49.324Z,94.60
2018-11-21T02:13:51.804Z,94.70
2018-11-21T02:15:54.331Z,94.60
2018-11-21T02:17:56.835Z,94.80
2018-11-21T02:19:59.335Z,94.60
2018-11-21T02:22:01.776Z,94.70
2018-11-21T02:24:04.253Z,94.70
2018-11-21T02:26:06.737Z,94.60
2018-11-21T02:28:09.195Z,94.40
2018-11-21T02:30:11.723Z,94.40
2018-11-21T02:32:14.180Z,94.40
2018-11-21T02:34:16.619Z,94.80
2018-11-21T02:36:19.090Z,94.20
2018-11-21T02:38:21.539Z,94.20
2018-11-21T02:40:23.976Z,94.50
2018-11-21T02:42:26.466Z,94.30
2018-11-21T02:44:28.964Z,94.60
2018-11-21T02:46:31.448Z,94.70
2018-11-21T02:48:33.896Z,94.40
2018-11-21T02:50:36.414Z,94.30
2018-11-21T02:52:38.890Z,94.40
2018-11-21T02:54:41.387Z,94.30
2018-11-21T02:57:26.076Z,94.20
2018-11-21T02:59:28.521Z,94.30
2018-11-21T03:01:30.984Z,94.30
2018-11-21T03:03:33.779Z,94.30
2018-11-21T03:05:36.239Z,94.20
2018-11-21T03:07:48.468Z,94.40
2018-11-21T03:09:50.963Z,94.30
2018-11-21T03:11:53.442Z,94.20
2018-11-21T03:13:55.922Z,94.20
2018-11-21T03:15:58.419Z,94.20
2018-11-21T03:18:00.863Z,94.20
2018-11-21T03:20:03.388Z,94.10
2018-11-21T03:22:06.169Z,94.10
2018-11-21T03:24:08.814Z,94.30
2018-11-21T03:26:11.268Z,93.90
2018-11-21T03:28:13.789Z,94.10
2018-11-21T03:30:16.231Z,94.00
2018-11-21T03:32:18.740Z,93.90
2018-11-21T03:34:21.179Z,94.10
2018-11-21T03:36:23.638Z,94.20
2018-11-21T03:38:26.441Z,94.20
2018-11-21T03:40:28.893Z,94.10
2018-11-21T03:42:31.364Z,93.90
2018-11-21T03:44:33.878Z,93.90
2018-11-21T03:46:36.485Z,94.00
2018-11-21T03:48:39.016Z,93.60
2018-11-21T03:50:41.498Z,93.90
2018-11-21T03:52:43.942Z,93.80
2018-11-21T03:54:46.462Z,94.00
2018-11-21T03:56:48.951Z,93.80
2018-11-21T03:58:51.427Z,94.00
2018-11-21T04:00:53.910Z,93.90
2018-11-21T04:02:56.349Z,93.90
2018-11-21T04:04:58.830Z,93.60
2018-11-21T04:07:01.338Z,93.60
2018-11-21T04:09:08.226Z,93.70
2018-11-21T04:11:10.695Z,93.50
2018-11-21T04:13:13.236Z,93.90
2018-11-21T04:15:15.680Z,93.80
2018-11-21T04:17:18.140Z,93.80
2018-11-21T04:19:20.632Z,93.80
2018-11-21T04:21:23.113Z,93.70
2018-11-21T04:23:25.557Z,93.50
2018-11-21T04:25:28.045Z,93.40
2018-11-21T04:27:30.562Z,93.80
2018-11-21T04:29:33.215Z,93.30
2018-11-21T04:31:35.775Z,93.40
2018-11-21T04:33:38.625Z,93.60
2018-11-21T04:35:41.090Z,93.40
2018-11-21T04:37:43.522Z,93.30
2018-11-21T04:39:46.005Z,93.20
2018-11-21T04:41:48.455Z,93.10
2018-11-21T04:43:50.944Z,93.20
2018-11-21T04:45:53.461Z,93.00
2018-11-21T04:47:56.034Z,93.00
2018-11-21T04:49:58.335Z,93.00
2018-11-21T04:52:00.857Z,92.70
2018-11-21T04:54:04.328Z,93.20
2018-11-21T04:56:06.877Z,93.00
2018-11-21T04:58:10.058Z,92.60
2018-11-21T05:00:12.611Z,92.60
2018-11-21T05:02:15.145Z,92.60
2018-11-21T05:04:17.675Z,92.90
2018-11-21T05:06:20.233Z,92.80
2018-11-21T05:08:22.736Z,93.00
2018-11-21T05:10:25.301Z,92.90
2018-11-21T05:12:27.878Z,92.90
2018-11-21T05:14:30.401Z,93.00
2018-11-21T05:16:33.018Z,92.70
2018-11-21T05:18:35.596Z,93.00
2018-11-21T05:20:38.119Z,93.10
2018-11-21T05:22:40.671Z,93.20
2018-11-21T05:24:43.371Z,92.90
2018-11-21T05:26:45.937Z,92.80
2018-11-21T05:28:48.753Z,92.90
2018-11-21T05:30:51.311Z,92.90
2018-11-21T05:32:53.846Z,93.10
2018-11-21T05:34:56.746Z,93.20
2018-11-21T05:36:59.357Z,93.10
2018-11-21T05:39:02.532Z,93.40
2018-11-21T05:41:05.809Z,93.10
2018-11-21T05:43:08.661Z,93.40
2018-11-21T05:45:13.488Z,93.30
2018-11-21T05:47:22.109Z,93.00
2018-11-21T05:49:49.437Z,93.10
2018-11-21T05:51:54.365Z,93.20
2018-11-21T05:54:15.562Z,93.40
2018-11-21T05:56:36.507Z,93.50
2018-11-21T05:58:38.961Z,93.60
2018-11-21T06:00:41.424Z,93.30
2018-11-21T06:02:43.935Z,93.40
2018-11-21T06:04:46.445Z,93.80
2018-11-21T06:06:48.882Z,93.40
2018-11-21T06:08:51.389Z,93.40
2018-11-21T06:10:53.833Z,93.30
2018-11-21T06:12:56.284Z,93.80
2018-11-21T06:14:59.427Z,93.80
2018-11-21T06:17:01.886Z,93.80
2018-11-21T06:19:22.956Z,93.70
2018-11-21T06:21:25.404Z,93.60
2018-11-21T06:23:27.856Z,94.00
2018-11-21T06:25:30.317Z,93.80
2018-11-21T06:27:32.781Z,94.00
2018-11-21T06:29:35.613Z,93.90
2018-11-21T06:31:38.036Z,94.60
2018-11-21T06:33:40.534Z,95.10
2018-11-21T06:35:43.117Z,95.00
2018-11-21T06:37:45.608Z,95.10
2018-11-21T06:39:48.082Z,95.70
2018-11-21T06:41:50.538Z,95.20
2018-11-21T06:43:52.989Z,95.40
2018-11-21T06:45:55.839Z,95.30
2018-11-21T06:47:58.261Z,94.70
2018-11-21T06:50:00.703Z,94.90
2018-11-21T06:52:03.221Z,95.20
2018-11-21T06:54:08.033Z,94.80
2018-11-21T06:56:10.472Z,95.10
2018-11-21T06:58:12.969Z,95.10
2018-11-21T07:00:15.423Z,94.80
2018-11-21T07:02:17.926Z,94.90
2018-11-21T07:04:20.674Z,94.60
2018-11-21T07:06:23.137Z,95.10
2018-11-21T07:08:25.582Z,95.10
2018-11-21T07:10:28.650Z,95.30
2018-11-21T07:12:31.092Z,95.10
2018-11-21T07:14:33.571Z,95.00
2018-11-21T07:16:37.140Z,95.10
2018-11-21T07:18:39.999Z,95.00
2018-11-21T07:20:42.476Z,95.00
2018-11-21T07:22:44.960Z,95.20
2018-11-21T07:24:47.837Z,95.10
2018-11-21T07:26:50.287Z,95.60
2018-11-21T07:28:52.802Z,95.50
2018-11-21T07:30:55.275Z,95.40
2018-11-21T07:32:57.726Z,95.40
2018-11-21T07:35:00.170Z,95.60
2018-11-21T07:37:02.641Z,95.30
2018-11-21T07:39:08.167Z,95.20
2018-11-21T07:41:10.592Z,95.30
2018-11-21T07:43:12.990Z,95.50
2018-11-21T07:45:15.730Z,95.40
2018-11-21T07:47:18.163Z,95.50
2018-11-21T07:49:20.609Z,95.70
2018-11-21T07:51:23.009Z,95.40
2018-11-21T07:53:25.453Z,95.30
2018-11-21T07:55:27.878Z,95.10
2018-11-21T07:57:35.842Z,95.40
2018-11-21T07:59:38.270Z,95.30
2018-11-21T08:01:49.625Z,95.50
2018-11-21T08:04:11.672Z,95.60
2018-11-21T08:06:39.659Z,95.40
2018-11-21T08:09:01.743Z,95.30
2018-11-21T08:11:33.091Z,95.60
2018-11-21T08:13:54.293Z,95.30
2018-11-21T08:16:28.444Z,95.10
2018-11-21T08:18:59.782Z,95.20
2018-11-21T08:21:11.756Z,95.20
2018-11-21T08:23:32.406Z,95.20
2018-11-21T08:25:57.268Z,95.00
2018-11-21T08:28:17.454Z,95.20
2018-11-21T08:30:19.881Z,95.10
2018-11-21T08:32:22.327Z,94.90
2018-11-21T08:34:24.733Z,94.90
2018-11-21T08:36:27.119Z,95.10
2018-11-21T08:38:29.864Z,95.00
2018-11-21T08:40:32.286Z,95.00
2018-11-21T08:42:34.725Z,94.90
2018-11-21T08:44:37.181Z,94.90
2018-11-21T08:46:39.634Z,95.00
2018-11-21T08:48:42.068Z,94.90
2018-11-21T08:50:44.526Z,95.10
2018-11-21T08:52:46.923Z,95.10
2018-11-21T08:54:49.529Z,95.20
2018-11-21T08:56:51.997Z,95.20
2018-11-21T08:58:54.415Z,95.60
2018-11-21T09:00:56.820Z,95.00
2018-11-21T09:02:59.271Z,94.90
2018-11-21T09:05:01.742Z,95.00
2018-11-21T09:07:04.276Z,94.70
2018-11-21T09:09:08.958Z,94.90
2018-11-21T09:11:11.349Z,94.80
2018-11-21T09:13:13.822Z,94.70
2018-11-21T09:15:17.031Z,94.60
2018-11-21T09:17:19.480Z,94.70
2018-11-21T09:19:21.950Z,94.60
2018-11-21T09:21:24.381Z,94.60
2018-11-21T09:23:27.311Z,94.50
2018-11-21T09:25:29.739Z,95.10
2018-11-21T09:27:32.669Z,94.80
2018-11-21T09:29:35.438Z,94.90
2018-11-21T09:31:37.861Z,94.90
2018-11-21T09:33:40.261Z,95.10
2018-11-21T09:35:42.717Z,95.10
2018-11-21T09:37:45.146Z,95.00
2018-11-21T09:39:47.589Z,94.80
2018-11-21T09:41:50.163Z,95.00
2018-11-21T09:43:52.590Z,94.80
2018-11-21T09:45:55.004Z,94.70
2018-11-21T09:47:57.574Z,94.90
2018-11-21T09:49:59.984Z,94.80
2018-11-21T09:52:02.456Z,94.40
2018-11-21T09:54:04.979Z,95.20
2018-11-21T09:56:07.392Z,95.10
2018-11-21T09:58:09.806Z,94.50
2018-11-21T10:01:07.990Z,95.10
2018-11-21T10:03:18.681Z,95.00
2018-11-21T10:05:21.135Z,95.10
2018-11-21T10:07:23.558Z,95.00
2018-11-21T10:09:29.072Z,95.10
2018-11-21T10:11:32.573Z,95.20
2018-11-21T10:13:35.033Z,95.10
2018-11-21T10:15:37.438Z,95.20
2018-11-21T10:17:39.865Z,95.40
2018-11-21T10:19:42.329Z,95.10
2018-11-21T10:21:44.763Z,95.10
2018-11-21T10:23:47.195Z,95.50
2018-11-21T10:25:49.629Z,95.40
2018-11-21T10:27:52.057Z,95.20
2018-11-21T10:29:54.498Z,95.30
2018-11-21T10:31:56.942Z,95.20
2018-11-21T10:33:59.321Z,95.00
2018-11-21T10:36:02.029Z,95.20
2018-11-21T10:38:04.486Z,95.30
2018-11-21T10:40:07.689Z,95.30
2018-11-21T10:42:10.141Z,95.20
2018-11-21T10:44:12.637Z,95.60
2018-11-21T10:46:15.055Z,95.50
2018-11-21T10:48:17.501Z,95.70
2018-11-21T10:50:20.029Z,95.60
2018-11-21T10:52:22.463Z,95.30
2018-11-21T10:54:24.893Z,95.40
2018-11-21T10:56:27.316Z,95.40
2018-11-21T10:58:29.744Z,96.00
2018-11-21T11:00:50.607Z,95.70
2018-11-21T11:03:07.406Z,95.70
2018-11-21T11:05:21.157Z,95.80
2018-11-21T11:07:58.214Z,95.80
2018-11-21T11:10:18.946Z,95.60
2018-11-21T11:12:59.341Z,95.50
2018-11-21T11:15:30.305Z,95.90
2018-11-21T11:17:49.486Z,96.40
2018-11-21T11:20:30.074Z,95.80
2018-11-21T11:23:01.061Z,96.10
2018-11-21T11:25:22.396Z,96.00
2018-11-21T11:27:37.903Z,96.10
2018-11-21T11:30:05.953Z,96.10
2018-11-21T11:32:26.771Z,96.20
2018-11-21T11:35:07.385Z,96.10
2018-11-21T11:37:29.435Z,96.00
2018-11-21T11:40:06.823Z,96.10
2018-11-21T11:42:35.374Z,96.30
2018-11-21T11:45:03.520Z,96.10
2018-11-21T11:47:18.273Z,96.30
2018-11-21T11:49:39.069Z,96.30
2018-11-21T11:52:10.149Z,96.30
2018-11-21T11:54:38.176Z,96.50
2018-11-21T11:56:59.043Z,96.20
2018-11-21T11:59:33.257Z,96.60
2018-11-21T12:02:01.269Z,96.20
2018-11-21T12:04:24.918Z,96.10
2018-11-21T12:06:57.803Z,96.40
2018-11-21T12:09:22.734Z,96.30
2018-11-21T12:11:39.442Z,96.00
2018-11-21T12:14:00.152Z,96.00
2018-11-21T12:16:10.198Z,96.10
2018-11-21T12:18:24.400Z,96.40
2018-11-21T12:20:44.082Z,96.40
2018-11-21T12:23:04.965Z,96.20
2018-11-21T12:25:25.884Z,96.10
2018-11-21T12:27:39.202Z,96.40
2018-11-21T12:30:10.036Z,96.60
2018-11-21T12:32:33.469Z,96.30
2018-11-21T12:35:07.510Z,96.60
2018-11-21T12:37:28.405Z,96.40
2018-11-21T12:39:57.708Z,96.50
2018-11-21T12:42:25.270Z,96.40
2018-11-21T12:44:46.211Z,96.40
2018-11-21T12:47:11.062Z,96.50
2018-11-21T12:49:31.898Z,96.50
2018-11-21T12:52:02.967Z,96.60
2018-11-21T12:54:22.132Z,97.00
2018-11-21T12:56:56.422Z,96.70
2018-11-21T12:59:21.154Z,96.50
2018-11-21T13:01:36.054Z,96.70
2018-11-21T13:03:56.765Z,96.40
2018-11-21T13:06:17.663Z,96.30
2018-11-21T13:08:33.144Z,96.30
2018-11-21T13:10:54.044Z,96.10
2018-11-21T13:13:19.027Z,96.20
2018-11-21T13:15:43.252Z,96.50
2018-11-21T13:18:00.670Z,96.30
2018-11-21T13:20:17.088Z,96.40
2018-11-21T13:22:54.480Z,96.60
2018-11-21T13:25:25.516Z,96.60
2018-11-21T13:27:50.690Z,96.30
2018-11-21T13:30:12.746Z,96.20
2018-11-21T13:32:33.922Z,96.20
2018-11-21T13:35:11.324Z,96.10
2018-11-21T13:37:32.104Z,96.10
2018-11-21T13:40:03.346Z,95.70
2018-11-21T13:42:19.068Z,95.60
2018-11-21T13:44:29.783Z,95.60
2018-11-21T13:46:50.605Z,95.80
2018-11-21T13:49:06.716Z,95.90
2018-11-21T13:51:27.752Z,95.80
2018-11-21T13:53:42.549Z,96.00
2018-11-21T13:55:45.058Z,95.70
2018-11-21T13:57:47.493Z,95.90
2018-11-21T13:59:49.914Z,96.10
2018-11-21T14:01:52.726Z,96.00
2018-11-21T14:03:55.150Z,95.90
2018-11-21T14:05:57.553Z,95.80
2018-11-21T14:07:59.994Z,95.60
2018-11-21T14:10:03.337Z,95.60
2018-11-21T14:12:05.849Z,95.70
2018-11-21T14:14:09.196Z,95.70
2018-11-21T14:16:11.624Z,95.60
2018-11-21T14:18:14.062Z,95.90
2018-11-21T14:20:16.518Z,95.90
2018-11-21T14:22:18.934Z,95.90
2018-11-21T14:24:21.359Z,95.60
2018-11-21T14:26:24.188Z,96.00
2018-11-21T14:28:26.599Z,96.00
2018-11-21T14:30:28.994Z,96.10
2018-11-21T14:32:31.441Z,95.90
2018-11-21T14:34:33.976Z,96.00
2018-11-21T14:36:36.395Z,95.80
2018-11-21T14:38:39.302Z,96.00
2018-11-21T14:40:41.731Z,96.30
2018-11-21T14:42:44.132Z,96.20
2018-11-21T14:44:46.581Z,96.40
2018-11-21T14:46:51.150Z,95.90
2018-11-21T14:48:53.587Z,96.00
2018-11-21T14:50:56.297Z,96.00
2018-11-21T14:52:58.733Z,96.00
2018-11-21T14:55:01.145Z,96.00
2018-11-21T14:57:03.694Z,96.10
2018-11-21T14:59:06.122Z,96.10
2018-11-21T15:01:08.548Z,96.00
2018-11-21T15:03:10.980Z,96.00
2018-11-21T15:05:13.882Z,96.30
2018-11-21T15:07:16.281Z,96.20
2018-11-21T15:09:19.000Z,96.30
2018-11-21T15:11:21.447Z,96.30
2018-11-21T15:13:23.856Z,96.10
2018-11-21T15:15:26.294Z,96.30
2018-11-21T15:17:28.754Z,96.40
2018-11-21T15:19:31.153Z,96.20
2018-11-21T15:21:33.906Z,96.30
2018-11-21T15:23:36.415Z,96.30
2018-11-21T15:25:38.843Z,96.40
2018-11-21T15:27:41.558Z,96.40
2018-11-21T15:29:43.958Z,96.60
2018-11-21T15:31:46.380Z,96.50
2018-11-21T15:33:48.825Z,96.40
2018-11-21T15:35:51.241Z,96.40
2018-11-21T15:37:53.656Z,96.40
2018-11-21T15:39:56.126Z,96.40
2018-11-21T15:41:58.537Z,96.10
2018-11-21T15:44:00.949Z,96.30
2018-11-21T15:46:03.488Z,96.30
2018-11-21T15:48:05.912Z,96.40
2018-11-21T15:50:13.763Z,96.60
2018-11-21T15:52:16.224Z,96.40
2018-11-21T15:54:18.658Z,96.50
2018-11-21T15:56:22.020Z,96.30
2018-11-21T15:58:23.934Z,96.40
2018-11-21T16:00:27.942Z,96.50
2018-11-21T16:02:30.549Z,96.30
2018-11-21T16:04:32.977Z,96.50
2018-11-21T16:06:35.419Z,96.60
2018-11-21T16:08:37.838Z,96.40
2018-11-21T16:10:41.879Z,96.60
2018-11-21T16:12:44.467Z,96.60
2018-11-21T16:14:46.900Z,96.70
2018-11-21T16:16:49.296Z,96.60
2018-11-21T16:18:51.756Z,96.40
2018-11-21T16:20:54.213Z,96.40
2018-11-21T16:22:56.640Z,96.60
2018-11-21T16:24:59.075Z,96.50
2018-11-21T16:27:01.536Z,96.50
2018-11-21T16:29:04.362Z,96.60
2018-11-21T16:31:06.835Z,96.40
2018-11-21T16:33:09.274Z,96.60
2018-11-21T16:35:12.127Z,96.40
2018-11-21T16:37:14.554Z,96.70
2018-11-21T16:39:16.976Z,96.60
2018-11-21T16:41:19.444Z,96.70
2018-11-21T16:43:21.865Z,96.80
2018-11-21T16:45:26.190Z,96.70
2018-11-21T16:47:28.624Z,96.70
2018-11-21T16:49:31.055Z,96.80
2018-11-21T16:51:33.519Z,96.60
2018-11-21T16:53:35.994Z,96.70
2018-11-21T16:55:38.432Z,97.00
2018-11-21T16:57:41.367Z,97.10
2018-11-21T16:59:43.823Z,97.10
2018-11-21T17:01:46.254Z,97.10
2018-11-21T17:03:49.034Z,97.20
2018-11-21T17:05:51.441Z,97.30
2018-11-21T17:07:53.863Z,97.30
2018-11-21T17:09:56.603Z,97.40
2018-11-21T17:11:59.018Z,97.30
2018-11-21T17:14:01.422Z,97.40
2018-11-21T17:16:04.674Z,97.30
2018-11-21T17:18:07.077Z,97.20
2018-11-21T17:20:13.412Z,97.20
2018-11-21T17:22:16.167Z,97.20
2018-11-21T17:24:18.591Z,97.40
2018-11-21T17:26:21.000Z,97.50
2018-11-21T17:28:23.726Z,97.40
2018-11-21T17:30:26.164Z,97.40
2018-11-21T17:32:28.586Z,97.30
2018-11-21T17:34:31.264Z,97.40
2018-11-21T17:36:33.731Z,97.30
2018-11-21T17:38:36.187Z,97.50
2018-11-21T17:40:40.672Z,97.50
2018-11-21T17:42:43.179Z,97.60
2018-11-21T17:44:45.822Z,97.80
2018-11-21T17:46:48.529Z,98.00
2018-11-21T17:48:51.010Z,98.10
2018-11-21T17:50:53.430Z,98.10
2018-11-21T17:52:57.287Z,98.10
2018-11-21T17:54:59.712Z,97.80
2018-11-21T17:57:02.502Z,97.90
2018-11-21T17:59:05.030Z,97.80
2018-11-21T18:01:07.431Z,97.50
2018-11-21T18:03:10.238Z,97.70
2018-11-21T18:05:14.190Z,97.40
2018-11-21T18:07:16.622Z,97.40
2018-11-21T18:09:19.021Z,97.70
2018-11-21T18:11:21.487Z,97.70
2018-11-21T18:13:23.945Z,97.80
2018-11-21T18:15:26.366Z,97.90
2018-11-21T18:17:28.799Z,97.90
2018-11-21T18:19:31.269Z,97.90
2018-11-21T18:21:33.697Z,97.90
2018-11-21T18:23:36.155Z,97.80
2018-11-21T18:25:40.879Z,97.70
2018-11-21T18:27:43.677Z,97.90
2018-11-21T18:29:46.140Z,98.00
2018-11-21T18:31:48.592Z,97.80
2018-11-21T18:33:51.486Z,97.90
2018-11-21T18:35:53.924Z,98.10
2018-11-21T18:37:56.350Z,98.30
2018-11-21T18:39:58.830Z,98.30
2018-11-21T18:42:01.235Z,98.50
2018-11-21T18:44:03.784Z,98.40
2018-11-21T18:46:06.300Z,98.80
2018-11-21T18:48:09.209Z,98.80
2018-11-21T18:50:13.113Z,98.80
2018-11-21T18:52:15.573Z,98.80
2018-11-21T18:54:18.017Z,98.90
2018-11-21T18:56:37.424Z,99.00
2018-11-21T18:59:14.166Z,99.20
2018-11-21T19:01:16.617Z,98.80
2018-11-21T19:03:19.126Z,99.00
2018-11-21T19:05:21.614Z,98.80
2018-11-21T19:07:24.054Z,98.80
2018-11-21T19:09:26.502Z,98.70
2018-11-21T19:11:29.027Z,98.70
2018-11-21T19:13:31.629Z,98.70
2018-11-21T19:15:34.188Z,98.70
2018-11-21T19:17:36.696Z,98.70
2018-11-21T19:19:39.120Z,98.60
2018-11-21T19:21:41.756Z,98.50
2018-11-21T19:23:45.247Z,98.60
2018-11-21T19:25:47.699Z,98.40
2018-11-21T19:27:50.196Z,98.50
2018-11-21T19:29:52.646Z,98.50
2018-11-21T19:31:55.118Z,98.70
2018-11-21T19:33:57.630Z,98.90
2018-11-21T19:36:00.126Z,98.60
2018-11-21T19:38:02.751Z,98.40
2018-11-21T19:40:08.787Z,98.50
2018-11-21T19:42:11.296Z,98.40
2018-11-21T19:44:13.741Z,98.40
2018-11-21T19:46:16.195Z,98.40
2018-11-21T19:48:18.734Z,98.30
2018-11-21T19:50:21.258Z,98.20
2018-11-21T19:52:23.699Z,98.00
2018-11-21T19:54:26.200Z,98.40
2018-11-21T19:56:29.532Z,98.40
2018-11-21T19:58:31.975Z,98.40
2018-11-21T20:00:35.577Z,98.40
2018-11-21T20:02:38.045Z,98.20
2018-11-21T20:04:40.486Z,98.20
2018-11-21T20:06:51.924Z,98.30
2018-11-21T20:08:55.464Z,98.30
2018-11-21T20:10:58.289Z,98.10
2018-11-21T20:13:00.793Z,98.00
2018-11-21T20:15:03.497Z,97.80
2018-11-21T20:17:06.020Z,98.20
2018-11-21T20:19:08.492Z,98.00
2018-11-21T20:21:10.918Z,97.90
2018-11-21T20:23:13.383Z,97.70
2018-11-21T20:25:17.061Z,98.00
2018-11-21T20:27:19.554Z,97.90
2018-11-21T20:29:22.054Z,97.90
2018-11-21T20:31:24.556Z,97.90
2018-11-21T20:33:28.069Z,98.00
2018-11-21T20:35:30.758Z,98.10
2018-11-21T20:37:33.206Z,98.10
2018-11-21T20:39:35.738Z,97.80
2018-11-21T20:41:38.317Z,97.80
2018-11-21T20:43:59.939Z,97.80
2018-11-21T20:46:02.407Z,97.60
2018-11-21T20:48:05.084Z,97.60
2018-11-21T20:50:07.613Z,97.90
2018-11-21T20:52:10.123Z,97.70
2018-11-21T20:54:12.644Z,97.80
2018-11-21T20:56:15.125Z,97.60
2018-11-21T20:58:17.603Z,98.10
2018-11-21T21:00:21.500Z,97.80
2018-11-21T21:02:23.955Z,97.80
2018-11-21T21:04:26.392Z,97.70
2018-11-21T21:06:28.872Z,97.80
2018-11-21T21:08:31.380Z,97.70
2018-11-21T21:10:34.152Z,97.50
2018-11-21T21:12:36.649Z,97.90
2018-11-21T21:14:39.125Z,97.60
2018-11-21T21:16:41.553Z,97.80
2018-11-21T21:18:44.002Z,97.60
2018-11-21T21:20:46.497Z,97.80
2018-11-21T21:22:50.384Z,98.10
2018-11-21T21:24:52.878Z,97.70
2018-11-21T21:26:55.399Z,97.80
2018-11-21T21:28:57.811Z,97.60
2018-11-21T21:31:00.246Z,97.50
2018-11-21T21:33:02.720Z,97.60
2018-11-21T21:35:24.732Z,97.50
2018-11-21T21:37:46.125Z,97.50
2018-11-21T21:39:48.833Z,97.50
2018-11-21T21:41:51.796Z,97.70
2018-11-21T21:43:54.235Z,97.60
2018-11-21T21:45:56.717Z,97.50
2018-11-21T21:48:05.415Z,97.60
2018-11-21T21:50:09.680Z,97.40
2018-11-21T21:52:12.107Z,97.40
2018-11-21T21:54:14.544Z,97.40
2018-11-21T21:56:17.008Z,97.30
2018-11-21T21:58:19.443Z,97.60
2018-11-21T22:00:23.217Z,97.20
2018-11-21T22:02:25.972Z,97.40
2018-11-21T22:04:28.390Z,97.30
2018-11-21T22:06:30.829Z,97.20
2018-11-21T22:08:33.273Z,97.30
2018-11-21T22:10:35.900Z,97.40
2018-11-21T22:12:38.417Z,97.60
2018-11-21T22:14:40.831Z,97.50
2018-11-21T22:16:43.277Z,97.40
2018-11-21T22:18:45.699Z,97.70
2018-11-21T22:20:48.430Z,97.60
2018-11-21T22:22:51.290Z,97.30
2018-11-21T22:24:53.964Z,97.40
2018-11-21T22:26:56.660Z,97.40
2018-11-21T22:28:59.099Z,97.30
2018-11-21T22:31:01.521Z,97.50
2018-11-21T22:33:04.373Z,97.50
2018-11-21T22:35:07.730Z,97.30
2018-11-21T22:37:10.140Z,97.50
2018-11-21T22:39:13.123Z,97.20
2018-11-21T22:41:15.724Z,97.40
2018-11-21T22:43:18.140Z,97.50
2018-11-21T22:45:21.335Z,97.30
2018-11-21T22:47:23.796Z,97.40
2018-11-21T22:49:26.248Z,97.40
2018-11-21T22:51:28.764Z,97.30
2018-11-21T22:53:31.185Z,97.20
2018-11-21T22:55:33.589Z,97.30
2018-11-21T22:57:36.002Z,97.40
2018-11-21T22:59:38.471Z,97.20
2018-11-21T23:01:40.893Z,97.20
2018-11-21T23:03:43.321Z,97.60
2018-11-21T23:05:45.759Z,97.30
2018-11-21T23:07:48.169Z,97.40
2018-11-21T23:09:50.586Z,97.40
2018-11-21T23:11:53.021Z,97.30
2018-11-21T23:13:55.418Z,97.20
2018-11-21T23:15:57.860Z,97.10
2018-11-21T23:18:00.670Z,97.30
2018-11-21T23:20:04.589Z,97.30
2018-11-21T23:22:07.005Z,97.30
2018-11-21T23:24:09.466Z,97.60
2018-11-21T23:26:11.904Z,97.40
2018-11-21T23:28:14.337Z,97.40
2018-11-21T23:30:17.781Z,97.30
2018-11-21T23:32:20.248Z,97.40
2018-11-21T23:34:22.695Z,97.30
2018-11-21T23:36:25.144Z,97.40
2018-11-21T23:38:27.943Z,97.20
2018-11-21T23:40:30.385Z,97.20
2018-11-21T23:42:32.799Z,97.30
2018-11-21T23:44:35.256Z,97.30
2018-11-21T23:46:37.688Z,97.30
2018-11-21T23:48:40.107Z,97.40
2018-11-21T23:50:42.573Z,97.30
2018-11-21T23:52:44.981Z,97.30
2018-11-21T23:54:47.401Z,97.40
2018-11-21T23:57:15.536Z,97.60
2018-11-21T23:58:52.282Z,97.20
